Latest Coastal Weather Observations for Lake Macquarie - Cooranbong

IDN60701

Issued at 9:42 am EDT Thursday 5 March 2015 (issued every 10 minutes, with the page automatically refreshed every 10 minutes)

About coastal observations | Map of coastal stations | Coastal observations for NSW | Marine services | Other Formats
Station Details ID: 061412 Name: LAKE MACQUARIE AWS Lat: -33.09 Lon: 151.46 Height: 6.0 m
Data from the previous 72 hours. | See also: Recent months at Lake Macquarie - Cooranbong
Date/Time
EDT
Temp

°C
Wind Pressure Rain
since 9am
mm
Weather Cloud Vis
km
Sea
Height
m
Swell
Dir
 
Speed
knots
Gust
knots
hPa Trend Height
m
Period
s
Dir
05/09:30am 26.4 W 3 6 1006.4 - 0.0 - - - - - - -
05/09:00am 25.1 WSW 4 7 1006.5 - 0.0 - - - - - - -
05/08:30am 21.4 WNW 1 3 1006.2 - 0.0 - - - - - - -
05/08:00am 18.7 WNW 1 2 1006.0 - 0.0 - - - - - - -
05/07:30am 17.2 WNW 2 4 1005.5 - 0.0 - - - - - - -
05/07:00am 15.9 CALM 0 2 1005.2 - 0.0 - - - - - - -
05/06:30am 16.3 CALM 0 0 1004.9 - 0.0 - - - - - - -
05/06:00am 17.0 CALM 0 0 1004.7 - 0.0 - - - - - - -
05/05:30am 17.4 CALM 0 0 1004.5 - 0.0 - - - - - - -
05/05:00am 17.8 CALM 0 0 1004.5 - 0.0 - - - - - - -
05/04:30am 17.9 CALM 0 0 1004.8 - 0.0 - - - - - - -
05/04:00am 18.3 E 1 1 1005.1 - 0.0 - - - - - - -
05/03:30am 18.5 CALM 0 0 1005.4 - 0.0 - - - - - - -
05/03:00am 18.6 CALM 0 0 1005.7 - 0.0 - - - - - - -
05/02:30am 19.0 CALM 0 0 1006.3 - 0.0 - - - - - - -
05/02:00am 19.3 CALM 0 0 1006.6 - 0.0 - - - - - - -
05/01:30am 19.9 CALM 0 0 1006.8 - 0.0 - - - - - - -
05/01:00am 19.7 CALM 0 0 1007.3 - 0.0 - - - - - - -
05/12:30am 19.8 CALM 0 0 1007.5 - 0.0 - - - - - - -
05/12:00am 20.4 CALM 0 0 1007.7 - 0.0 - - - - - - -
 
Date/Time
EDT
Temp

°C
Wind Pressure Rain
since 9am
mm
Weather Cloud Vis
km
Sea
Height
m
Swell
Dir
 
Speed
knots
Gust
knots
hPa Trend Height
m
Period
s
Dir
04/11:30pm 20.6 CALM 0 0 1008.0 - 0.0 - - - - - - -
04/11:00pm 20.7 CALM 0 0 1008.2 - 0.0 - - - - - - -
04/10:30pm 21.1 CALM 0 0 1008.4 - 0.0 - - - - - - -
04/10:00pm 21.3 CALM 0 0 1008.6 - 0.0 - - - - - - -
04/09:30pm 21.7 CALM 0 0 1008.8 - 0.0 - - - - - - -
04/09:00pm 21.9 CALM 0 0 1008.7 - 0.0 - - - - - - -
04/08:30pm 22.2 CALM 0 0 1008.6 - 0.0 - - - - - - -
04/08:00pm 23.0 CALM 0 0 1008.4 - 0.0 - - - - - - -
04/07:30pm 24.1 CALM 0 0 1008.5 - 0.0 - - - - - - -
04/07:00pm 24.6 CALM 0 1 1008.5 - 0.0 - - - - - - -
04/06:30pm 25.1 ENE 3 5 1008.5 - 0.0 - - - - - - -
04/06:00pm 25.4 E 5 8 1008.8 - 0.0 - - - - - - -
04/05:30pm 25.8 E 5 9 1008.8 - 0.0 - - - - - - -
04/05:00pm 26.4 E 7 11 1008.8 - 0.0 - - - - - - -
04/04:30pm 26.4 E 6 11 1008.7 - 0.0 - - - - - - -
04/04:00pm 28.0 E 6 10 1009.0 - 0.0 - - - - - - -
04/03:30pm 28.6 SE 4 8 1009.3 - 0.0 - - - - - - -
04/03:00pm 28.4 SSE 5 10 1009.5 - 0.0 - - - - - - -
04/02:30pm 27.8 SSE 2 6 1009.9 - 0.0 - - - - - - -
04/02:00pm 28.2 S 4 7 1010.5 - 0.0 - - - - - - -
04/01:30pm 27.5 SW 5 10 1010.8 - 0.0 - - - - - - -
04/01:00pm 26.3 SSW 5 9 1011.4 - 0.0 - - - - - - -
04/12:30pm 26.3 SW 4 8 1011.8 - 0.0 - - - - - - -
04/12:00pm 26.7 S 3 5 1011.8 - 0.0 - - - - - - -
04/11:30am 26.8 SSW 3 7 1012.4 - 0.0 - - - - - - -
04/11:00am 26.2 WSW 3 5 1012.6 - 0.0 - - - - - - -
04/10:30am 24.8 WNW 1 3 1012.8 - 0.0 - - - - - - -
04/10:00am 24.0 SW 1 3 1013.0 - 0.0 - - - - - - -
04/09:30am 23.5 SSW 1 2 1013.0 - 0.0 - - - - - - -
04/09:00am 22.4 SW 1 4 1013.1 - 0.0 - - - - - - -
04/08:30am 22.1 WSW 1 2 1012.6 - 0.0 - - - - - - -
04/08:00am 21.7 WSW 2 3 1012.8 - 0.0 - - - - - - -
04/07:30am 21.3 WSW 1 2 1012.2 - 0.0 - - - - - - -
04/07:00am 21.1 SW 1 2 1011.9 - 0.0 - - - - - - -
04/06:30am 21.3 WSW 1 3 1011.8 - 0.0 - - - - - - -
04/06:00am 21.2 WSW 1 4 1011.7 - 0.0 - - - - - - -
04/05:30am 21.2 CALM 0 2 1011.6 - 0.0 - - - - - - -
04/05:00am 21.5 WSW 1 3 1011.6 - 0.0 - - - - - - -
04/04:30am 21.4 SW 1 3 1011.6 - 0.0 - - - - - - -
04/04:00am 21.5 SW 2 3 1011.8 - 0.0 - - - - - - -
04/03:30am 21.5 WSW 2 4 1012.1 - 0.0 - - - - - - -
04/03:00am 21.4 CALM 0 2 1012.3 - 0.0 - - - - - - -
04/02:30am 21.3 CALM 0 2 1012.3 - 0.0 - - - - - - -
04/02:00am 21.2 SW 1 3 1012.7 - 0.0 - - - - - - -
04/01:30am 20.9 WSW 2 3 1013.0 - 0.0 - - - - - - -
04/01:00am 20.5 CALM 0 0 1013.0 - 0.0 - - - - - - -
04/12:30am 20.6 CALM 0 0 1013.2 - 0.0 - - - - - - -
04/12:00am 20.7 CALM 0 0 1013.3 - 0.0 - - - - - - -
 
Date/Time
EDT
Temp

°C
Wind Pressure Rain
since 9am
mm
Weather Cloud Vis
km
Sea
Height
m
Swell
Dir
 
Speed
knots
Gust
knots
hPa Trend Height
m
Period
s
Dir
03/11:30pm 20.7 CALM 0 0 1013.4 - 0.0 - - - - - - -
03/11:00pm 21.0 CALM 0 0 1013.7 - 0.0 - - - - - - -
03/10:30pm 21.2 CALM 0 0 1013.8 - 0.0 - - - - - - -
03/10:00pm 21.3 CALM 0 0 1013.9 - 0.0 - - - - - - -
03/09:30pm 21.4 CALM 0 0 1013.9 - 0.0 - - - - - - -
03/09:00pm 21.5 CALM 0 0 1013.7 - 0.0 - - - - - - -
03/08:30pm 22.3 CALM 0 0 1013.5 - 0.0 - - - - - - -
03/08:00pm 22.8 SE 1 3 1013.4 - 0.0 - - - - - - -
03/07:30pm 23.1 CALM 0 1 1013.1 - 0.0 - - - - - - -
03/07:00pm 23.6 NE 2 5 1013.2 - 0.0 - - - - - - -
03/06:30pm 24.3 ENE 4 6 1013.2 - 0.0 - - - - - - -
03/06:00pm 24.1 E 6 11 1013.2 - 0.0 - - - - - - -
03/05:30pm 24.7 ESE 8 13 1013.0 - 0.0 - - - - - - -
03/05:00pm 24.8 E 9 14 1012.9 - 0.0 - - - - - - -
03/04:30pm 25.5 E 6 11 1012.7 - 0.0 - - - - - - -
03/04:00pm 24.8 E 8 14 1012.9 - 0.0 - - - - - - -
03/03:30pm 25.5 E 7 12 1012.9 - 0.0 - - - - - - -
03/03:00pm 25.6 ESE 9 14 1013.1 - 0.0 - - - - - - -
03/02:30pm 26.4 E 7 12 1013.5 - 0.0 - - - - - - -
03/02:00pm 26.7 ESE 7 11 1013.6 - 0.0 - - - - - - -
03/01:30pm 27.9 ENE 4 6 1013.9 - 0.0 - - - - - - -
03/01:00pm 27.5 NNE 3 6 1014.4 - 0.0 - - - - - - -
03/12:30pm 27.0 ENE 3 5 1015.0 - 0.0 - - - - - - -
03/12:00pm 25.5 NNE 3 8 1015.6 - 0.0 - - - - - - -
03/11:30am 25.4 NNE 4 8 1016.0 - 0.0 - - - - - - -
03/11:00am 24.6 NNE 6 9 1016.4 - 0.0 - - - - - - -
03/10:30am 23.9 NNE 4 8 1016.6 - 0.0 - - - - - - -
03/10:00am 23.2 NE 3 5 1016.5 - 0.0 - - - - - - -
03/09:30am 21.9 NNE 1 3 1016.5 - 0.0 - - - - - - -
03/09:00am 19.3 WNW 1 2 1016.4 - 0.0 - - - - - - -
03/08:30am 17.8 CALM 0 0 1016.1 - 0.0 - - - - - - -
03/08:00am 15.3 CALM 0 0 1016.3 - 0.0 - - - - - - -
03/07:30am 13.1 CALM 0 0 1016.1 - 0.0 - - - - - - -
03/07:00am 12.6 CALM 0 0 1015.8 - 0.0 - - - - - - -
03/06:30am 12.5 CALM 0 0 1015.6 - 0.0 - - - - - - -
03/06:00am 12.8 CALM 0 0 1015.5 - 0.0 - - - - - - -
03/05:30am 12.6 CALM 0 0 1015.2 - 0.0 - - - - - - -
03/05:00am 13.1 CALM 0 0 1015.1 - 0.0 - - - - - - -
03/04:30am 12.9 CALM 0 0 1015.3 - 0.0 - - - - - - -
03/04:00am 13.4 CALM 0 0 1015.3 - 0.0 - - - - - - -
03/03:30am 13.4 CALM 0 0 1015.7 - 0.0 - - - - - - -
03/03:00am 13.7 CALM 0 0 1015.9 - 0.0 - - - - - - -
03/02:30am 14.1 CALM 0 0 1016.3 - 0.0 - - - - - - -
03/02:00am 13.9 CALM 0 0 1016.6 - 0.0 - - - - - - -
03/01:30am 14.2 CALM 0 0 1017.2 - 0.0 - - - - - - -
03/01:00am 14.7 CALM 0 0 1017.7 - 0.0 - - - - - - -
03/12:30am 14.8 CALM 0 0 1018.0 - 0.0 - - - - - - -
03/12:00am 15.0 CALM 0 0 1018.0 - 0.0 - - - - - - -
 
Date/Time
EDT
Temp

°C
Wind Pressure Rain
since 9am
mm
Weather Cloud Vis
km
Sea
Height
m
Swell
Dir
 
Speed
knots
Gust
knots
hPa Trend Height
m
Period
s
Dir
02/11:30pm 15.4 CALM 0 0 1017.8 - 0.0 - - - - - - -
02/11:00pm 15.9 CALM 0 0 1017.9 - 0.0 - - - - - - -
02/10:30pm 16.1 CALM 0 0 1018.1 - 0.0 - - - - - - -
02/10:00pm 16.7 CALM 0 0 1018.2 - 0.0 - - - - - - -
02/09:30pm 17.1 CALM 0 0 1018.3 - 0.0 - - - - - - -
02/09:00pm 17.6 CALM 0 0 1018.2 - 0.0 - - - - - - -
02/08:30pm 18.8 CALM 0 2 1018.2 - 0.0 - - - - - - -
02/08:00pm 19.8 CALM 0 0 1017.8 - 0.0 - - - - - - -
02/07:30pm 21.0 ESE 2 2 1017.6 - 0.0 - - - - - - -
02/07:00pm 21.7 SE 1 3 1017.3 - 0.0 - - - - - - -
02/06:30pm 22.3 ESE 3 4 1016.9 - 0.0 - - - - - - -
02/06:00pm 22.4 ESE 4 8 1016.9 - 0.0 - - - - - - -
02/05:30pm 22.6 ESE 4 6 1016.7 - 0.0 - - - - - - -
02/05:00pm 22.6 ESE 3 5 1016.7 - 0.0 - - - - - - -
02/04:30pm 22.2 ESE 4 7 1016.7 - 0.0 - - - - - - -
02/04:00pm 22.4 SSE 4 8 1017.0 - 0.0 - - - - - - -
02/03:30pm 23.3 SE 4 9 1017.0 - 0.0 - - - - - - -
02/03:00pm 22.8 SSE 3 5 1017.5 - 0.0 - - - - - - -
02/02:30pm 22.4 SSE 4 7 1017.8 - 0.0 - - - - - - -
02/02:00pm 22.4 SSE 4 8 1018.2 - 0.0 - - - - - - -
02/01:30pm 23.0 SSE 5 11 1018.3 - 0.0 - - - - - - -
02/01:00pm 22.9 S 4 10 1018.6 - 0.0 - - - - - - -
02/12:30pm 22.7 S 3 8 1018.9 - 0.0 - - - - - - -
02/12:00pm 22.3 SSW 4 7 1019.1 - 0.0 - - - - - - -
02/11:30am 22.6 S 3 7 1019.1 - 0.0 - - - - - - -
02/11:00am 22.1 S 4 7 1019.1 - 0.0 - - - - - - -
02/10:30am 21.3 SSW 4 7 1019.3 - 0.0 - - - - - - -
02/10:00am 20.9 SW 3 6 1019.0 - 0.0 - - - - - - -

Other Formats:

Comma delimited format used in spreadsheet applications
http://www.bom.gov.au/fwo/IDN60701/IDN60701.95767.axf

JavaScript Object Notation format (JSON) in row-major order
http://www.bom.gov.au/fwo/IDN60701/IDN60701.95767.json